createdAt,value
2023-04-07T00:01:25.822Z,7.20
2023-04-07T00:10:20.677Z,7.10
2023-04-07T00:12:48.549Z,7.10
2023-04-07T00:15:17.120Z,7.10
2023-04-07T00:17:45.510Z,7.10
2023-04-07T00:20:15.723Z,7.10
2023-04-07T00:22:46.792Z,7.10
2023-04-07T00:25:16.527Z,7.10
2023-04-07T00:27:44.568Z,7.10
2023-04-07T00:30:13.229Z,7.10
2023-04-07T00:32:42.464Z,7.00
2023-04-07T00:35:16.108Z,7.00
2023-04-07T00:37:44.321Z,7.00
2023-04-07T00:40:14.174Z,7.00
2023-04-07T00:42:44.660Z,7.00
2023-04-07T00:45:13.803Z,7.00
2023-04-07T00:47:42.721Z,7.00
2023-04-07T00:50:12.049Z,7.00
2023-04-07T00:52:43.012Z,7.00
2023-04-07T00:55:11.573Z,7.10
2023-04-07T00:57:40.604Z,7.10
2023-04-07T01:00:10.978Z,7.10
2023-04-07T01:02:43.553Z,7.10
2023-04-07T01:05:17.399Z,7.20
2023-04-07T01:07:54.740Z,7.20
2023-04-07T01:10:29.342Z,7.20
2023-04-07T01:13:08.783Z,7.10
2023-04-07T01:15:40.813Z,7.10
2023-04-07T01:18:12.133Z,7.10
2023-04-07T01:20:43.396Z,7.10
2023-04-07T01:23:19.312Z,7.20
2023-04-07T01:26:06.374Z,7.20
2023-04-07T01:28:46.669Z,7.20
2023-04-07T01:31:16.962Z,7.20
2023-04-07T01:33:46.722Z,7.30
2023-04-07T01:36:17.595Z,7.30
2023-04-07T01:38:47.550Z,7.30
2023-04-07T01:41:17.007Z,7.30
2023-04-07T01:43:46.461Z,7.40
2023-04-07T01:46:17.009Z,7.40
2023-04-07T01:48:45.984Z,7.40
2023-04-07T01:51:17.586Z,7.50
2023-04-07T01:53:46.944Z,7.60
2023-04-07T01:56:15.496Z,7.70
2023-04-07T01:58:46.943Z,7.80
2023-04-07T02:01:20.331Z,7.80
2023-04-07T02:03:54.557Z,7.90
2023-04-07T02:06:26.897Z,8.00
2023-04-07T02:08:58.602Z,8.00
2023-04-07T02:11:28.026Z,8.00
2023-04-07T02:14:02.395Z,8.10
2023-04-07T02:16:36.587Z,8.10
2023-04-07T02:19:06.910Z,8.20
2023-04-07T02:21:35.612Z,8.20
2023-04-07T02:24:04.925Z,8.20
2023-04-07T02:26:35.457Z,8.20
2023-04-07T02:29:04.049Z,8.20
2023-04-07T02:31:32.678Z,8.20
2023-04-07T02:34:03.972Z,8.20
2023-04-07T02:36:34.714Z,8.20
2023-04-07T02:39:04.073Z,8.20
2023-04-07T02:41:32.829Z,8.20
2023-04-07T02:44:01.922Z,8.10
2023-04-07T02:46:30.257Z,8.10
2023-04-07T02:48:58.929Z,8.10
2023-04-07T02:51:29.400Z,8.20
2023-04-07T02:53:58.779Z,8.10
2023-04-07T02:56:27.066Z,8.10
2023-04-07T02:58:56.220Z,8.10
2023-04-07T03:01:25.376Z,8.10
2023-04-07T03:03:55.247Z,8.20
2023-04-07T03:06:27.195Z,8.20
2023-04-07T03:09:29.282Z,8.20
2023-04-07T03:12:02.513Z,8.20
2023-04-07T03:14:35.312Z,8.10
2023-04-07T03:17:07.190Z,8.20
2023-04-07T03:19:36.747Z,8.10
2023-04-07T03:22:04.778Z,8.20
2023-04-07T03:24:40.840Z,8.20
2023-04-07T03:27:09.019Z,8.10
2023-04-07T03:29:48.328Z,8.10
2023-04-07T03:32:18.543Z,8.10
2023-04-07T03:34:47.381Z,8.10
2023-04-07T03:37:17.073Z,8.10
2023-04-07T03:39:48.674Z,8.10
2023-04-07T03:42:28.103Z,8.10
2023-04-07T03:45:02.634Z,8.20
2023-04-07T03:47:35.057Z,8.30
2023-04-07T03:50:06.961Z,8.30
2023-04-07T03:52:42.998Z,8.30
2023-04-07T03:55:29.627Z,8.30
2023-04-07T03:58:04.894Z,8.30
2023-04-07T04:00:36.156Z,8.30
2023-04-07T04:03:13.348Z,8.40
2023-04-07T04:05:52.798Z,8.40
2023-04-07T04:08:28.887Z,8.40
2023-04-07T04:10:58.731Z,8.40
2023-04-07T04:13:32.731Z,8.40
2023-04-07T04:16:06.114Z,8.40
2023-04-07T04:18:35.589Z,8.40
2023-04-07T04:21:07.021Z,8.40
2023-04-07T04:23:36.404Z,8.40
2023-04-07T04:26:07.604Z,8.40
2023-04-07T04:28:36.231Z,8.40
2023-04-07T04:31:09.303Z,8.40
2023-04-07T04:33:42.700Z,8.40
2023-04-07T04:36:11.706Z,8.30
2023-04-07T04:38:40.423Z,8.20
2023-04-07T04:41:18.238Z,8.20
2023-04-07T04:43:47.955Z,8.10
2023-04-07T04:46:22.071Z,8.00
2023-04-07T04:48:54.158Z,8.10
2023-04-07T04:51:26.160Z,8.10
2023-04-07T04:54:02.266Z,8.20
2023-04-07T04:56:32.629Z,8.20
2023-04-07T04:59:01.620Z,8.30
2023-04-07T05:01:39.637Z,8.30
2023-04-07T05:04:15.159Z,8.40
2023-04-07T05:06:49.798Z,8.40
2023-04-07T05:09:21.883Z,8.40
2023-04-07T05:11:52.918Z,8.40
2023-04-07T05:14:22.575Z,8.30
2023-04-07T05:16:58.522Z,8.20
2023-04-07T05:19:30.842Z,8.20
2023-04-07T05:22:06.127Z,8.20
2023-04-07T05:24:42.573Z,8.10
2023-04-07T05:27:15.298Z,8.20
2023-04-07T05:29:47.887Z,8.20
2023-04-07T05:32:25.546Z,8.20
2023-04-07T05:34:55.571Z,8.30
2023-04-07T05:37:29.133Z,8.20
2023-04-07T05:39:59.091Z,8.30
2023-04-07T05:42:28.575Z,8.40
2023-04-07T05:44:59.174Z,8.40
2023-04-07T05:47:29.135Z,8.40
2023-04-07T05:49:58.629Z,8.50
2023-04-07T05:52:27.897Z,8.50
2023-04-07T05:55:09.143Z,8.50
2023-04-07T05:57:38.904Z,8.50
2023-04-07T06:00:08.758Z,8.40
2023-04-07T06:02:44.485Z,8.40
2023-04-07T06:05:18.779Z,8.40
2023-04-07T06:07:50.253Z,8.40
2023-04-07T06:10:20.387Z,8.30
2023-04-07T06:12:51.586Z,8.10
2023-04-07T06:15:20.456Z,8.00
2023-04-07T06:17:49.461Z,7.90
2023-04-07T06:20:19.060Z,7.90
2023-04-07T06:22:47.577Z,7.90
2023-04-07T06:25:16.038Z,8.00
2023-04-07T06:27:46.396Z,8.10
2023-04-07T06:30:17.936Z,8.10
2023-04-07T06:32:48.564Z,8.30
2023-04-07T06:35:16.880Z,8.40
2023-04-07T06:37:45.080Z,8.50
2023-04-07T06:40:19.464Z,8.50
2023-04-07T06:42:47.973Z,8.50
2023-04-07T06:45:31.072Z,8.50
2023-04-07T06:47:59.095Z,8.40
2023-04-07T06:50:28.028Z,8.50
2023-04-07T06:52:56.284Z,8.60
2023-04-07T06:55:24.798Z,8.70
2023-04-07T06:57:54.800Z,8.90
2023-04-07T07:00:25.868Z,8.90
2023-04-07T07:03:01.864Z,9.00
2023-04-07T07:05:30.724Z,9.10
2023-04-07T07:07:59.448Z,9.20
2023-04-07T07:10:28.222Z,9.20
2023-04-07T07:12:57.240Z,9.40
2023-04-07T07:15:26.248Z,9.40
2023-04-07T07:17:54.595Z,9.40
2023-04-07T07:20:31.550Z,9.50
2023-04-07T07:23:00.046Z,9.50
2023-04-07T07:25:28.491Z,9.60
2023-04-07T07:27:56.754Z,9.70
2023-04-07T07:30:26.304Z,9.70
2023-04-07T07:32:57.481Z,9.70
2023-04-07T07:35:28.744Z,9.70
2023-04-07T07:38:01.740Z,9.60
2023-04-07T07:47:01.801Z,9.40
2023-04-07T07:52:15.118Z,9.20
2023-04-07T07:54:44.306Z,9.00
2023-04-07T07:57:13.003Z,9.00
2023-04-07T07:59:42.955Z,9.00
2023-04-07T08:02:12.907Z,9.30
2023-04-07T08:04:41.654Z,9.50
2023-04-07T08:07:12.397Z,9.70
2023-04-07T08:09:42.273Z,9.80
2023-04-07T08:12:11.668Z,9.80
2023-04-07T08:14:41.529Z,10.00
2023-04-07T08:17:10.027Z,10.10
2023-04-07T08:19:38.603Z,10.20
2023-04-07T08:22:07.249Z,10.40
2023-04-07T08:24:35.512Z,10.60
2023-04-07T08:27:19.164Z,10.80
2023-04-07T08:29:52.578Z,11.40
2023-04-07T08:32:21.219Z,12.10
2023-04-07T08:34:54.361Z,12.70
2023-04-07T08:37:25.499Z,13.50
2023-04-07T08:39:54.355Z,13.70
2023-04-07T08:42:27.088Z,13.80
2023-04-07T08:44:56.348Z,13.90
2023-04-07T08:47:26.506Z,13.80
2023-04-07T08:49:58.221Z,14.10
2023-04-07T08:52:32.234Z,14.20
2023-04-07T08:55:03.257Z,14.50
2023-04-07T08:57:34.348Z,14.60
2023-04-07T09:00:05.889Z,14.40
2023-04-07T09:02:35.206Z,14.40
2023-04-07T09:05:07.855Z,14.50
2023-04-07T09:07:37.197Z,14.30
2023-04-07T09:10:10.201Z,14.10
2023-04-07T09:12:40.784Z,14.10
2023-04-07T09:15:09.728Z,14.00
2023-04-07T09:17:38.555Z,14.20
2023-04-07T09:20:10.118Z,14.60
2023-04-07T09:22:39.406Z,15.30
2023-04-07T09:25:13.031Z,16.00
2023-04-07T09:27:44.358Z,15.70
2023-04-07T09:30:14.983Z,15.40
2023-04-07T09:32:47.363Z,15.30
2023-04-07T09:35:17.784Z,15.10
2023-04-07T09:37:46.564Z,15.00
2023-04-07T09:40:29.295Z,14.80
2023-04-07T09:43:00.021Z,14.80
2023-04-07T09:45:34.755Z,14.70
2023-04-07T09:48:08.675Z,14.60
2023-04-07T09:50:39.026Z,14.60
2023-04-07T09:53:08.274Z,14.60
2023-04-07T09:55:37.481Z,14.80
2023-04-07T09:58:09.510Z,15.00
2023-04-07T10:00:38.392Z,15.00
2023-04-07T10:03:07.191Z,14.90
2023-04-07T10:05:37.517Z,14.70
2023-04-07T10:08:09.462Z,15.00
2023-04-07T10:10:38.818Z,15.20
2023-04-07T10:13:11.845Z,15.40
2023-04-07T10:15:45.072Z,15.50
2023-04-07T10:18:20.479Z,15.80
2023-04-07T10:23:40.976Z,16.00
2023-04-07T10:26:11.826Z,15.80
2023-04-07T10:31:50.360Z,15.80
2023-04-07T10:34:41.916Z,15.80
2023-04-07T10:37:11.608Z,15.90
2023-04-07T10:39:41.605Z,16.00
2023-04-07T10:42:31.370Z,16.10
2023-04-07T10:48:03.391Z,16.20
2023-04-07T10:50:33.061Z,16.20
2023-04-07T10:53:18.564Z,16.10
2023-04-07T10:55:48.144Z,16.10
2023-04-07T10:58:21.209Z,16.20
2023-04-07T11:01:08.352Z,16.30
2023-04-07T11:03:40.415Z,16.40
2023-04-07T11:06:11.561Z,16.50
2023-04-07T11:08:42.274Z,16.40
2023-04-07T11:11:12.264Z,16.00
2023-04-07T11:13:41.799Z,15.90
2023-04-07T11:16:15.994Z,16.10
2023-04-07T11:18:45.266Z,16.90
2023-04-07T11:21:18.987Z,17.60
2023-04-07T11:23:49.421Z,17.70
2023-04-07T11:26:18.509Z,17.90
2023-04-07T11:28:49.484Z,17.70
2023-04-07T11:31:23.901Z,17.70
2023-04-07T11:33:56.553Z,17.60
2023-04-07T11:36:37.570Z,17.80
2023-04-07T11:39:05.814Z,18.20
2023-04-07T11:41:43.094Z,18.60
2023-04-07T11:44:23.040Z,18.80
2023-04-07T11:46:58.843Z,19.00
2023-04-07T11:49:29.348Z,19.20
2023-04-07T11:52:09.741Z,19.00
2023-04-07T11:54:43.068Z,18.70
2023-04-07T11:57:17.283Z,18.50
2023-04-07T11:59:46.057Z,18.40
2023-04-07T12:02:33.192Z,18.20
2023-04-07T12:05:01.795Z,18.00
2023-04-07T12:07:32.184Z,17.70
2023-04-07T12:10:19.683Z,17.30
2023-04-07T12:12:50.310Z,17.20
2023-04-07T12:15:18.781Z,16.90
2023-04-07T12:17:48.094Z,16.60
2023-04-07T12:20:17.349Z,16.70
2023-04-07T12:22:48.712Z,16.80
2023-04-07T12:25:18.320Z,16.80
2023-04-07T12:27:46.783Z,16.80
2023-04-07T12:30:17.413Z,16.80
2023-04-07T12:32:46.485Z,16.80
2023-04-07T12:35:14.926Z,16.90
2023-04-07T12:37:43.051Z,16.90
2023-04-07T12:40:13.814Z,17.00
2023-04-07T12:42:42.729Z,17.20
2023-04-07T12:45:11.882Z,17.20
2023-04-07T12:47:40.742Z,17.20
2023-04-07T12:50:10.257Z,17.80
2023-04-07T12:52:38.419Z,17.90
2023-04-07T12:55:07.233Z,18.10
2023-04-07T12:57:37.888Z,18.70
2023-04-07T13:00:07.104Z,19.40
2023-04-07T13:02:40.949Z,20.40
2023-04-07T13:05:14.495Z,20.80
2023-04-07T13:07:44.652Z,21.20
2023-04-07T13:12:58.476Z,21.50
2023-04-07T13:15:28.371Z,21.70
2023-04-07T13:17:56.574Z,21.30
2023-04-07T13:20:28.214Z,20.60
2023-04-07T13:23:08.117Z,20.00
2023-04-07T13:25:38.253Z,19.60
2023-04-07T13:28:08.108Z,18.80
2023-04-07T13:30:36.744Z,18.40
2023-04-07T13:33:07.493Z,18.20
2023-04-07T13:35:36.205Z,18.00
2023-04-07T13:38:04.779Z,18.10
2023-04-07T13:40:33.858Z,18.30
2023-04-07T13:43:02.681Z,18.40
2023-04-07T13:45:33.038Z,18.50
2023-04-07T13:48:02.306Z,19.00
2023-04-07T13:50:31.915Z,19.40
2023-04-07T13:52:59.944Z,19.40
2023-04-07T13:55:28.104Z,19.70
2023-04-07T13:57:57.930Z,19.70
2023-04-07T14:00:26.275Z,19.90
2023-04-07T14:03:01.230Z,20.10
2023-04-07T14:05:36.573Z,20.20
2023-04-07T14:08:08.437Z,20.00
2023-04-07T14:10:39.193Z,19.80
2023-04-07T14:13:08.584Z,20.10
2023-04-07T14:15:39.494Z,20.40
2023-04-07T14:18:24.716Z,20.00
2023-04-07T14:21:08.102Z,19.70
2023-04-07T14:23:37.842Z,19.70
2023-04-07T14:26:06.763Z,19.70
2023-04-07T14:28:35.573Z,19.90
2023-04-07T14:31:06.408Z,19.80
2023-04-07T14:33:39.964Z,19.50
2023-04-07T14:36:07.997Z,19.40
2023-04-07T14:38:37.172Z,19.30
2023-04-07T14:41:10.067Z,19.00
2023-04-07T14:43:38.566Z,18.80
2023-04-07T14:46:07.391Z,18.20
2023-04-07T14:48:39.196Z,18.10
2023-04-07T14:51:11.891Z,18.40
2023-04-07T14:53:42.196Z,18.70
2023-04-07T14:56:10.699Z,18.70
2023-04-07T14:58:40.927Z,18.80
2023-04-07T15:01:09.683Z,18.60
2023-04-07T15:03:58.290Z,18.80
2023-04-07T15:09:22.702Z,19.10
2023-04-07T15:11:58.104Z,19.40
2023-04-07T15:14:27.654Z,19.60
2023-04-07T15:16:56.087Z,19.60
2023-04-07T15:19:24.381Z,19.30
2023-04-07T15:39:29.646Z,17.20
2023-04-07T15:42:01.911Z,16.90
2023-04-07T16:24:57.324Z,14.20
2023-04-07T16:27:51.299Z,14.10
2023-04-07T16:59:02.587Z,13.90
2023-04-07T17:04:21.412Z,13.90
2023-04-07T17:12:35.958Z,13.40
2023-04-07T17:41:32.429Z,11.30
2023-04-07T17:46:54.083Z,11.30
2023-04-07T18:19:51.126Z,11.80
2023-04-07T18:22:23.348Z,11.70
2023-04-07T18:24:52.363Z,11.70
2023-04-07T18:27:42.108Z,11.70
2023-04-07T18:59:24.730Z,11.70
2023-04-07T19:40:18.358Z,11.50
2023-04-07T19:42:50.193Z,11.50
2023-04-07T20:05:53.321Z,11.40
2023-04-07T21:56:55.615Z,10.80
2023-04-07T23:41:40.041Z,10.10
2023-04-07T23:44:13.114Z,10.10
2023-04-07T23:46:42.834Z,10.10
2023-04-07T23:49:14.523Z,10.00
2023-04-07T23:54:29.133Z,10.00
